sensor_id;sensor_type;location;lat;lon;timestamp;pressure;altitude;pressure_sealevel;temperature;humidity
26807;BME280;14380;49.910;6.792;2023-05-14T00:00:41;99002.75;;;9.46;100.00
26807;BME280;14380;49.910;6.792;2023-05-14T00:03:07;98998.94;;;9.52;100.00
26807;BME280;14380;49.910;6.792;2023-05-14T00:05:34;98998.53;;;9.42;100.00
26807;BME280;14380;49.910;6.792;2023-05-14T00:08:02;98996.81;;;9.22;100.00
26807;BME280;14380;49.910;6.792;2023-05-14T00:10:29;98998.66;;;9.58;100.00
26807;BME280;14380;49.910;6.792;2023-05-14T00:12:56;98993.97;;;9.46;100.00
26807;BME280;14380;49.910;6.792;2023-05-14T00:15:23;98982.25;;;9.51;100.00
26807;BME280;14380;49.910;6.792;2023-05-14T00:17:49;98979.28;;;9.59;100.00
26807;BME280;14380;49.910;6.792;2023-05-14T00:20:16;98979.72;;;9.50;100.00
26807;BME280;14380;49.910;6.792;2023-05-14T00:22:43;98988.25;;;9.55;100.00
26807;BME280;14380;49.910;6.792;2023-05-14T00:25:11;98986.56;;;9.54;100.00
26807;BME280;14380;49.910;6.792;2023-05-14T00:27:38;98978.94;;;9.29;100.00
26807;BME280;14380;49.910;6.792;2023-05-14T00:30:06;98983.72;;;9.20;100.00
26807;BME280;14380;49.910;6.792;2023-05-14T00:32:32;98976.81;;;8.99;100.00
26807;BME280;14380;49.910;6.792;2023-05-14T00:34:59;98982.25;;;8.94;100.00
26807;BME280;14380;49.910;6.792;2023-05-14T00:37:27;98972.59;;;9.14;100.00
26807;BME280;14380;49.910;6.792;2023-05-14T00:39:54;98982.91;;;8.99;100.00
26807;BME280;14380;49.910;6.792;2023-05-14T00:42:22;98978.00;;;9.11;100.00
26807;BME280;14380;49.910;6.792;2023-05-14T00:44:48;98971.88;;;9.10;100.00
26807;BME280;14380;49.910;6.792;2023-05-14T00:47:15;98972.19;;;9.04;100.00
26807;BME280;14380;49.910;6.792;2023-05-14T00:49:41;98982.78;;;9.02;100.00
26807;BME280;14380;49.910;6.792;2023-05-14T00:52:09;98981.13;;;8.81;100.00
26807;BME280;14380;49.910;6.792;2023-05-14T00:54:37;98976.84;;;8.97;100.00
26807;BME280;14380;49.910;6.792;2023-05-14T00:57:04;98975.44;;;9.09;100.00
26807;BME280;14380;49.910;6.792;2023-05-14T00:59:33;98973.50;;;8.74;100.00
26807;BME280;14380;49.910;6.792;2023-05-14T01:02:00;98975.50;;;8.88;100.00
26807;BME280;14380;49.910;6.792;2023-05-14T01:04:27;98971.16;;;8.67;100.00
26807;BME280;14380;49.910;6.792;2023-05-14T01:07:03;98967.56;;;8.69;100.00
26807;BME280;14380;49.910;6.792;2023-05-14T01:09:38;98975.66;;;8.65;100.00
26807;BME280;14380;49.910;6.792;2023-05-14T01:12:13;98975.38;;;8.71;100.00
26807;BME280;14380;49.910;6.792;2023-05-14T01:14:51;98971.00;;;8.71;100.00
26807;BME280;14380;49.910;6.792;2023-05-14T01:17:21;98970.91;;;8.73;100.00
26807;BME280;14380;49.910;6.792;2023-05-14T01:19:50;98975.06;;;8.78;100.00
26807;BME280;14380;49.910;6.792;2023-05-14T01:22:18;98970.50;;;8.61;100.00
26807;BME280;14380;49.910;6.792;2023-05-14T01:24:45;98969.94;;;8.75;100.00
26807;BME280;14380;49.910;6.792;2023-05-14T01:27:16;98962.09;;;8.74;100.00
26807;BME280;14380;49.910;6.792;2023-05-14T01:29:49;98957.09;;;8.68;100.00
26807;BME280;14380;49.910;6.792;2023-05-14T01:32:19;98959.41;;;8.55;100.00
26807;BME280;14380;49.910;6.792;2023-05-14T01:34:49;98956.50;;;8.61;100.00
26807;BME280;14380;49.910;6.792;2023-05-14T01:37:19;98959.72;;;8.68;100.00
26807;BME280;14380;49.910;6.792;2023-05-14T01:39:48;98961.69;;;8.62;100.00
26807;BME280;14380;49.910;6.792;2023-05-14T01:42:15;98963.28;;;8.67;100.00
26807;BME280;14380;49.910;6.792;2023-05-14T01:44:42;98961.00;;;8.59;100.00
26807;BME280;14380;49.910;6.792;2023-05-14T01:47:09;98964.19;;;8.66;100.00
26807;BME280;14380;49.910;6.792;2023-05-14T01:49:35;98966.47;;;8.54;100.00
26807;BME280;14380;49.910;6.792;2023-05-14T01:52:02;98960.53;;;8.49;100.00
26807;BME280;14380;49.910;6.792;2023-05-14T01:54:30;98954.59;;;8.65;100.00
26807;BME280;14380;49.910;6.792;2023-05-14T01:56:57;98955.69;;;8.60;100.00
26807;BME280;14380;49.910;6.792;2023-05-14T01:59:23;98959.78;;;8.45;100.00
26807;BME280;14380;49.910;6.792;2023-05-14T02:01:50;98949.03;;;8.52;100.00
26807;BME280;14380;49.910;6.792;2023-05-14T02:04:17;98946.75;;;8.42;100.00
26807;BME280;14380;49.910;6.792;2023-05-14T02:06:44;98952.22;;;8.38;100.00
26807;BME280;14380;49.910;6.792;2023-05-14T02:09:11;98944.34;;;8.38;100.00
26807;BME280;14380;49.910;6.792;2023-05-14T02:11:39;98948.59;;;8.40;100.00
26807;BME280;14380;49.910;6.792;2023-05-14T02:14:06;98940.88;;;8.37;100.00
26807;BME280;14380;49.910;6.792;2023-05-14T02:16:33;98945.06;;;8.21;100.00
26807;BME280;14380;49.910;6.792;2023-05-14T02:18:59;98944.72;;;8.28;100.00
26807;BME280;14380;49.910;6.792;2023-05-14T02:21:26;98942.09;;;8.08;100.00
26807;BME280;14380;49.910;6.792;2023-05-14T02:23:53;98943.97;;;7.83;100.00
26807;BME280;14380;49.910;6.792;2023-05-14T02:26:20;98939.97;;;7.95;100.00
26807;BME280;14380;49.910;6.792;2023-05-14T02:28:48;98935.47;;;7.77;100.00
26807;BME280;14380;49.910;6.792;2023-05-14T02:31:15;98936.22;;;8.01;100.00
26807;BME280;14380;49.910;6.792;2023-05-14T02:33:43;98932.03;;;8.17;100.00
26807;BME280;14380;49.910;6.792;2023-05-14T02:36:10;98927.25;;;8.07;100.00
26807;BME280;14380;49.910;6.792;2023-05-14T02:38:36;98931.50;;;7.88;100.00
26807;BME280;14380;49.910;6.792;2023-05-14T02:41:03;98925.81;;;7.77;100.00
26807;BME280;14380;49.910;6.792;2023-05-14T02:43:30;98942.63;;;7.73;100.00
26807;BME280;14380;49.910;6.792;2023-05-14T02:45:58;98935.66;;;7.72;100.00
26807;BME280;14380;49.910;6.792;2023-05-14T02:48:24;98933.13;;;7.70;100.00
26807;BME280;14380;49.910;6.792;2023-05-14T02:50:51;98932.00;;;7.54;100.00
26807;BME280;14380;49.910;6.792;2023-05-14T02:53:18;98937.44;;;7.71;100.00
26807;BME280;14380;49.910;6.792;2023-05-14T02:55:44;98933.91;;;7.50;100.00
26807;BME280;14380;49.910;6.792;2023-05-14T02:58:11;98933.63;;;7.12;100.00
26807;BME280;14380;49.910;6.792;2023-05-14T03:00:37;98930.50;;;7.02;100.00
26807;BME280;14380;49.910;6.792;2023-05-14T03:03:05;98931.25;;;7.06;100.00
26807;BME280;14380;49.910;6.792;2023-05-14T03:05:32;98934.28;;;7.41;100.00
26807;BME280;14380;49.910;6.792;2023-05-14T03:07:59;98922.09;;;7.38;100.00
26807;BME280;14380;49.910;6.792;2023-05-14T03:10:25;98920.94;;;7.46;100.00
26807;BME280;14380;49.910;6.792;2023-05-14T03:12:52;98920.78;;;7.50;100.00
26807;BME280;14380;49.910;6.792;2023-05-14T03:15:19;98921.75;;;7.48;100.00
26807;BME280;14380;49.910;6.792;2023-05-14T03:17:45;98913.94;;;7.68;100.00
26807;BME280;14380;49.910;6.792;2023-05-14T03:20:13;98912.25;;;7.66;100.00
26807;BME280;14380;49.910;6.792;2023-05-14T03:22:40;98906.16;;;7.65;100.00
26807;BME280;14380;49.910;6.792;2023-05-14T03:25:07;98911.41;;;7.65;100.00
26807;BME280;14380;49.910;6.792;2023-05-14T03:27:34;98908.91;;;7.62;100.00
26807;BME280;14380;49.910;6.792;2023-05-14T03:30:01;98903.84;;;7.57;100.00
26807;BME280;14380;49.910;6.792;2023-05-14T03:32:28;98907.69;;;7.71;100.00
26807;BME280;14380;49.910;6.792;2023-05-14T03:34:55;98910.56;;;7.65;100.00
26807;BME280;14380;49.910;6.792;2023-05-14T03:37:23;98909.97;;;7.79;100.00
26807;BME280;14380;49.910;6.792;2023-05-14T03:39:50;98910.78;;;7.81;100.00
26807;BME280;14380;49.910;6.792;2023-05-14T03:42:16;98908.94;;;7.83;100.00
26807;BME280;14380;49.910;6.792;2023-05-14T03:44:43;98910.25;;;7.72;100.00
26807;BME280;14380;49.910;6.792;2023-05-14T03:47:10;98911.97;;;7.51;100.00
26807;BME280;14380;49.910;6.792;2023-05-14T03:49:37;98908.25;;;7.57;100.00
26807;BME280;14380;49.910;6.792;2023-05-14T03:52:04;98916.16;;;7.55;100.00
26807;BME280;14380;49.910;6.792;2023-05-14T03:54:32;98923.88;;;7.60;100.00
26807;BME280;14380;49.910;6.792;2023-05-14T03:56:58;98917.47;;;7.67;100.00
26807;BME280;14380;49.910;6.792;2023-05-14T03:59:26;98913.66;;;7.74;100.00
26807;BME280;14380;49.910;6.792;2023-05-14T04:01:52;98919.91;;;7.50;100.00
26807;BME280;14380;49.910;6.792;2023-05-14T04:04:19;98926.28;;;7.66;100.00
26807;BME280;14380;49.910;6.792;2023-05-14T04:06:48;98922.22;;;7.35;100.00
26807;BME280;14380;49.910;6.792;2023-05-14T04:09:14;98917.03;;;7.56;100.00
26807;BME280;14380;49.910;6.792;2023-05-14T04:11:42;98920.22;;;7.42;100.00
26807;BME280;14380;49.910;6.792;2023-05-14T04:14:09;98918.16;;;7.28;100.00
26807;BME280;14380;49.910;6.792;2023-05-14T04:16:36;98911.47;;;7.41;100.00
26807;BME280;14380;49.910;6.792;2023-05-14T04:19:03;98916.69;;;7.65;100.00
26807;BME280;14380;49.910;6.792;2023-05-14T04:21:30;98916.31;;;7.95;100.00
26807;BME280;14380;49.910;6.792;2023-05-14T04:23:57;98914.84;;;7.88;100.00
26807;BME280;14380;49.910;6.792;2023-05-14T04:26:24;98922.06;;;7.83;100.00
26807;BME280;14380;49.910;6.792;2023-05-14T04:28:52;98923.41;;;7.93;100.00
26807;BME280;14380;49.910;6.792;2023-05-14T04:31:18;98922.88;;;7.85;100.00
26807;BME280;14380;49.910;6.792;2023-05-14T04:33:45;98921.09;;;7.85;100.00
26807;BME280;14380;49.910;6.792;2023-05-14T04:36:12;98919.78;;;7.96;100.00
26807;BME280;14380;49.910;6.792;2023-05-14T04:38:39;98921.84;;;8.10;100.00
26807;BME280;14380;49.910;6.792;2023-05-14T04:41:06;98908.38;;;8.38;100.00
26807;BME280;14380;49.910;6.792;2023-05-14T04:43:33;98907.72;;;8.33;100.00
26807;BME280;14380;49.910;6.792;2023-05-14T04:46:01;98906.47;;;8.00;100.00
26807;BME280;14380;49.910;6.792;2023-05-14T04:48:27;98913.25;;;8.27;100.00
26807;BME280;14380;49.910;6.792;2023-05-14T04:50:54;98911.53;;;8.26;100.00
26807;BME280;14380;49.910;6.792;2023-05-14T04:53:21;98911.44;;;8.27;100.00
26807;BME280;14380;49.910;6.792;2023-05-14T04:55:48;98914.47;;;8.39;100.00
26807;BME280;14380;49.910;6.792;2023-05-14T04:58:16;98912.69;;;8.39;100.00
26807;BME280;14380;49.910;6.792;2023-05-14T05:00:43;98914.16;;;8.05;100.00
26807;BME280;14380;49.910;6.792;2023-05-14T05:03:11;98911.78;;;8.19;100.00
26807;BME280;14380;49.910;6.792;2023-05-14T05:05:38;98919.28;;;8.50;100.00
26807;BME280;14380;49.910;6.792;2023-05-14T05:08:04;98915.31;;;8.60;100.00
26807;BME280;14380;49.910;6.792;2023-05-14T05:10:31;98914.50;;;8.59;100.00
26807;BME280;14380;49.910;6.792;2023-05-14T05:12:59;98917.34;;;8.74;100.00
26807;BME280;14380;49.910;6.792;2023-05-14T05:15:25;98923.94;;;8.63;100.00
26807;BME280;14380;49.910;6.792;2023-05-14T05:17:53;98917.34;;;8.74;100.00
26807;BME280;14380;49.910;6.792;2023-05-14T05:20:22;98922.19;;;8.83;100.00
26807;BME280;14380;49.910;6.792;2023-05-14T05:22:49;98913.50;;;8.81;100.00
26807;BME280;14380;49.910;6.792;2023-05-14T05:25:16;98917.94;;;9.00;100.00
26807;BME280;14380;49.910;6.792;2023-05-14T05:27:43;98916.56;;;8.91;100.00
26807;BME280;14380;49.910;6.792;2023-05-14T05:30:11;98916.22;;;9.18;100.00
26807;BME280;14380;49.910;6.792;2023-05-14T05:32:38;98919.91;;;9.33;100.00
26807;BME280;14380;49.910;6.792;2023-05-14T05:35:05;98918.13;;;9.33;100.00
26807;BME280;14380;49.910;6.792;2023-05-14T05:37:34;98913.91;;;9.48;100.00
26807;BME280;14380;49.910;6.792;2023-05-14T05:40:01;98911.03;;;9.53;100.00
26807;BME280;14380;49.910;6.792;2023-05-14T05:42:28;98915.44;;;9.16;100.00
26807;BME280;14380;49.910;6.792;2023-05-14T05:44:55;98917.00;;;9.20;100.00
26807;BME280;14380;49.910;6.792;2023-05-14T05:47:21;98914.06;;;9.63;100.00
26807;BME280;14380;49.910;6.792;2023-05-14T05:49:48;98914.53;;;9.34;100.00
26807;BME280;14380;49.910;6.792;2023-05-14T05:52:15;98910.31;;;9.69;100.00
26807;BME280;14380;49.910;6.792;2023-05-14T05:54:43;98917.78;;;9.59;100.00
26807;BME280;14380;49.910;6.792;2023-05-14T05:57:10;98907.88;;;9.64;100.00
26807;BME280;14380;49.910;6.792;2023-05-14T05:59:37;98919.50;;;9.60;100.00
26807;BME280;14380;49.910;6.792;2023-05-14T06:02:04;98919.63;;;9.57;100.00
26807;BME280;14380;49.910;6.792;2023-05-14T06:04:31;98921.09;;;9.81;100.00
26807;BME280;14380;49.910;6.792;2023-05-14T06:06:58;98918.91;;;10.07;100.00
26807;BME280;14380;49.910;6.792;2023-05-14T06:09:25;98915.66;;;10.20;100.00
26807;BME280;14380;49.910;6.792;2023-05-14T06:11:53;98916.66;;;10.52;100.00
26807;BME280;14380;49.910;6.792;2023-05-14T06:14:20;98920.16;;;10.53;100.00
26807;BME280;14380;49.910;6.792;2023-05-14T06:16:47;98922.91;;;10.67;100.00
26807;BME280;14380;49.910;6.792;2023-05-14T06:19:14;98919.63;;;10.80;100.00
26807;BME280;14380;49.910;6.792;2023-05-14T06:21:41;98930.28;;;10.94;100.00
26807;BME280;14380;49.910;6.792;2023-05-14T06:24:09;98925.59;;;10.99;100.00
26807;BME280;14380;49.910;6.792;2023-05-14T06:26:35;98920.06;;;11.04;100.00
26807;BME280;14380;49.910;6.792;2023-05-14T06:29:03;98924.91;;;10.80;100.00
26807;BME280;14380;49.910;6.792;2023-05-14T06:31:30;98926.34;;;10.69;100.00
26807;BME280;14380;49.910;6.792;2023-05-14T06:33:57;98920.22;;;10.85;100.00
26807;BME280;14380;49.910;6.792;2023-05-14T06:36:24;98918.88;;;11.10;100.00
26807;BME280;14380;49.910;6.792;2023-05-14T06:38:51;98920.44;;;11.30;100.00
26807;BME280;14380;49.910;6.792;2023-05-14T06:41:17;98920.03;;;11.68;100.00
26807;BME280;14380;49.910;6.792;2023-05-14T06:43:45;98913.00;;;11.83;100.00
26807;BME280;14380;49.910;6.792;2023-05-14T06:46:13;98914.28;;;12.08;100.00
26807;BME280;14380;49.910;6.792;2023-05-14T06:48:40;98908.47;;;12.46;100.00
26807;BME280;14380;49.910;6.792;2023-05-14T06:51:07;98915.03;;;12.25;100.00
26807;BME280;14380;49.910;6.792;2023-05-14T06:53:35;98905.13;;;12.43;100.00
26807;BME280;14380;49.910;6.792;2023-05-14T06:56:02;98916.34;;;12.17;100.00
26807;BME280;14380;49.910;6.792;2023-05-14T06:58:29;98917.47;;;12.58;100.00
26807;BME280;14380;49.910;6.792;2023-05-14T07:00:56;98917.47;;;12.58;100.00
26807;BME280;14380;49.910;6.792;2023-05-14T07:03:25;98916.72;;;12.71;100.00
26807;BME280;14380;49.910;6.792;2023-05-14T07:05:53;98920.47;;;13.10;100.00
26807;BME280;14380;49.910;6.792;2023-05-14T07:08:20;98910.56;;;12.85;100.00
26807;BME280;14380;49.910;6.792;2023-05-14T07:10:48;98918.41;;;12.86;100.00
26807;BME280;14380;49.910;6.792;2023-05-14T07:13:15;98922.00;;;12.71;100.00
26807;BME280;14380;49.910;6.792;2023-05-14T07:15:42;98913.19;;;12.99;100.00
26807;BME280;14380;49.910;6.792;2023-05-14T07:18:09;98913.69;;;12.17;100.00
26807;BME280;14380;49.910;6.792;2023-05-14T07:20:37;98914.06;;;12.71;100.00
26807;BME280;14380;49.910;6.792;2023-05-14T07:23:04;98921.63;;;12.77;100.00
26807;BME280;14380;49.910;6.792;2023-05-14T07:25:30;98911.97;;;12.90;100.00
26807;BME280;14380;49.910;6.792;2023-05-14T07:27:57;98905.81;;;12.90;100.00
26807;BME280;14380;49.910;6.792;2023-05-14T07:30:24;98909.41;;;12.89;100.00
26807;BME280;14380;49.910;6.792;2023-05-14T07:32:50;98906.91;;;13.15;100.00
26807;BME280;14380;49.910;6.792;2023-05-14T07:35:17;98907.41;;;13.07;100.00
26807;BME280;14380;49.910;6.792;2023-05-14T07:37:46;98901.38;;;13.32;100.00
26807;BME280;14380;49.910;6.792;2023-05-14T07:40:13;98893.44;;;13.32;100.00
26807;BME280;14380;49.910;6.792;2023-05-14T07:42:42;98889.91;;;13.46;100.00
26807;BME280;14380;49.910;6.792;2023-05-14T07:45:09;98887.47;;;13.43;100.00
26807;BME280;14380;49.910;6.792;2023-05-14T07:47:39;98895.56;;;13.82;100.00
26807;BME280;14380;49.910;6.792;2023-05-14T07:50:07;98890.50;;;14.05;100.00
26807;BME280;14380;49.910;6.792;2023-05-14T07:52:34;98885.53;;;14.26;100.00
26807;BME280;14380;49.910;6.792;2023-05-14T07:55:03;98872.56;;;14.47;100.00
26807;BME280;14380;49.910;6.792;2023-05-14T07:57:31;98871.84;;;14.71;100.00
26807;BME280;14380;49.910;6.792;2023-05-14T08:00:00;98869.47;;;14.79;100.00
26807;BME280;14380;49.910;6.792;2023-05-14T08:02:30;98872.91;;;15.43;100.00
26807;BME280;14380;49.910;6.792;2023-05-14T08:05:00;98863.72;;;15.47;100.00
26807;BME280;14380;49.910;6.792;2023-05-14T08:07:27;98867.34;;;15.46;100.00
26807;BME280;14380;49.910;6.792;2023-05-14T08:09:58;98870.69;;;15.85;100.00
26807;BME280;14380;49.910;6.792;2023-05-14T08:12:31;98872.41;;;15.62;100.00
26807;BME280;14380;49.910;6.792;2023-05-14T08:14:59;98873.13;;;15.64;100.00
26807;BME280;14380;49.910;6.792;2023-05-14T08:17:26;98881.72;;;15.68;100.00
26807;BME280;14380;49.910;6.792;2023-05-14T08:19:53;98868.41;;;15.68;100.00
26807;BME280;14380;49.910;6.792;2023-05-14T08:22:19;98870.28;;;15.79;100.00
26807;BME280;14380;49.910;6.792;2023-05-14T08:24:47;98872.84;;;15.80;100.00
26807;BME280;14380;49.910;6.792;2023-05-14T08:27:23;98862.16;;;16.16;100.00
26807;BME280;14380;49.910;6.792;2023-05-14T08:29:52;98869.00;;;16.43;100.00
26807;BME280;14380;49.910;6.792;2023-05-14T08:32:19;98870.56;;;16.45;100.00
26807;BME280;14380;49.910;6.792;2023-05-14T08:34:46;98872.16;;;16.48;100.00
26807;BME280;14380;49.910;6.792;2023-05-14T08:37:13;98871.56;;;16.56;100.00
26807;BME280;14380;49.910;6.792;2023-05-14T08:39:40;98867.50;;;16.16;100.00
26807;BME280;14380;49.910;6.792;2023-05-14T08:42:09;98866.72;;;17.18;100.00
26807;BME280;14380;49.910;6.792;2023-05-14T08:44:44;98867.34;;;16.99;100.00
26807;BME280;14380;49.910;6.792;2023-05-14T08:47:15;98859.22;;;17.00;100.00
26807;BME280;14380;49.910;6.792;2023-05-14T08:49:45;98864.88;;;17.18;100.00
26807;BME280;14380;49.910;6.792;2023-05-14T08:52:15;98865.06;;;17.38;100.00
26807;BME280;14380;49.910;6.792;2023-05-14T08:54:44;98857.63;;;17.53;100.00
26807;BME280;14380;49.910;6.792;2023-05-14T08:57:14;98860.53;;;17.82;100.00
26807;BME280;14380;49.910;6.792;2023-05-14T08:59:43;98859.13;;;17.67;100.00
26807;BME280;14380;49.910;6.792;2023-05-14T09:02:19;98855.59;;;17.99;100.00
26807;BME280;14380;49.910;6.792;2023-05-14T09:04:46;98856.00;;;17.62;100.00
26807;BME280;14380;49.910;6.792;2023-05-14T09:07:13;98849.53;;;18.18;100.00
26807;BME280;14380;49.910;6.792;2023-05-14T09:09:41;98854.00;;;18.08;100.00
26807;BME280;14380;49.910;6.792;2023-05-14T09:12:09;98848.78;;;17.95;100.00
26807;BME280;14380;49.910;6.792;2023-05-14T09:14:36;98850.72;;;18.25;100.00
26807;BME280;14380;49.910;6.792;2023-05-14T09:17:03;98850.59;;;18.27;100.00
26807;BME280;14380;49.910;6.792;2023-05-14T09:19:31;98852.81;;;18.22;100.00
26807;BME280;14380;49.910;6.792;2023-05-14T09:21:58;98844.69;;;18.33;100.00
26807;BME280;14380;49.910;6.792;2023-05-14T09:24:26;98845.28;;;18.37;100.00
26807;BME280;14380;49.910;6.792;2023-05-14T09:27:03;98844.00;;;19.03;100.00
26807;BME280;14380;49.910;6.792;2023-05-14T09:29:31;98843.38;;;18.49;100.00
26807;BME280;14380;49.910;6.792;2023-05-14T09:31:59;98838.97;;;18.79;100.00
26807;BME280;14380;49.910;6.792;2023-05-14T09:34:30;98832.47;;;19.02;100.00
26807;BME280;14380;49.910;6.792;2023-05-14T09:37:01;98833.03;;;18.96;98.01
26807;BME280;14380;49.910;6.792;2023-05-14T09:39:29;98826.03;;;19.35;94.37
26807;BME280;14380;49.910;6.792;2023-05-14T09:41:56;98831.22;;;19.07;87.87
26807;BME280;14380;49.910;6.792;2023-05-14T09:44:24;98821.13;;;19.40;85.83
26807;BME280;14380;49.910;6.792;2023-05-14T09:46:51;98818.59;;;19.48;88.23
26807;BME280;14380;49.910;6.792;2023-05-14T09:49:19;98821.41;;;19.66;95.10
26807;BME280;14380;49.910;6.792;2023-05-14T09:51:47;98817.31;;;18.82;90.20
26807;BME280;14380;49.910;6.792;2023-05-14T09:54:15;98819.72;;;19.55;100.00
26807;BME280;14380;49.910;6.792;2023-05-14T09:56:42;98811.38;;;19.78;93.58
26807;BME280;14380;49.910;6.792;2023-05-14T09:59:09;98811.66;;;19.26;84.84
26807;BME280;14380;49.910;6.792;2023-05-14T10:01:37;98815.63;;;19.51;90.57
26807;BME280;14380;49.910;6.792;2023-05-14T10:04:06;98809.13;;;19.44;89.68
26807;BME280;14380;49.910;6.792;2023-05-14T10:06:36;98804.19;;;19.20;85.17
26807;BME280;14380;49.910;6.792;2023-05-14T10:09:06;98803.63;;;19.45;90.01
26807;BME280;14380;49.910;6.792;2023-05-14T10:11:37;98798.97;;;19.97;93.61
26807;BME280;14380;49.910;6.792;2023-05-14T10:14:07;98797.97;;;20.08;82.93
26807;BME280;14380;49.910;6.792;2023-05-14T10:16:36;98791.38;;;19.63;84.81
26807;BME280;14380;49.910;6.792;2023-05-14T10:19:08;98790.22;;;19.85;82.03
26807;BME280;14380;49.910;6.792;2023-05-14T10:21:36;98791.19;;;20.03;83.43
26807;BME280;14380;49.910;6.792;2023-05-14T10:24:04;98783.72;;;20.07;80.77
26807;BME280;14380;49.910;6.792;2023-05-14T10:26:34;98779.06;;;20.47;82.04
26807;BME280;14380;49.910;6.792;2023-05-14T10:29:04;98782.66;;;20.56;85.88
26807;BME280;14380;49.910;6.792;2023-05-14T10:31:44;98779.97;;;20.93;81.95
26807;BME280;14380;49.910;6.792;2023-05-14T10:34:30;98780.84;;;20.18;79.29
26807;BME280;14380;49.910;6.792;2023-05-14T10:36:58;98773.41;;;20.78;75.15
26807;BME280;14380;49.910;6.792;2023-05-14T10:39:39;98779.03;;;20.19;77.21
26807;BME280;14380;49.910;6.792;2023-05-14T10:42:07;98768.66;;;20.62;77.70
26807;BME280;14380;49.910;6.792;2023-05-14T10:44:41;98769.72;;;21.07;79.21
26807;BME280;14380;49.910;6.792;2023-05-14T10:47:11;98763.06;;;20.83;80.70
26807;BME280;14380;49.910;6.792;2023-05-14T10:49:38;98764.16;;;20.62;75.15
26807;BME280;14380;49.910;6.792;2023-05-14T10:52:07;98765.94;;;20.72;85.50
26807;BME280;14380;49.910;6.792;2023-05-14T10:54:34;98761.25;;;21.02;77.93
26807;BME280;14380;49.910;6.792;2023-05-14T10:57:02;98760.03;;;20.68;76.99
26807;BME280;14380;49.910;6.792;2023-05-14T10:59:29;98752.69;;;21.16;77.85
26807;BME280;14380;49.910;6.792;2023-05-14T11:02:22;98759.06;;;21.33;79.38
26807;BME280;14380;49.910;6.792;2023-05-14T11:04:57;98749.91;;;21.08;77.84
26807;BME280;14380;49.910;6.792;2023-05-14T11:07:27;98751.53;;;20.17;78.63
26807;BME280;14380;49.910;6.792;2023-05-14T11:09:59;98747.31;;;21.16;77.70
26807;BME280;14380;49.910;6.792;2023-05-14T11:12:26;98746.72;;;20.48;75.63
26807;BME280;14380;49.910;6.792;2023-05-14T11:14:53;98740.47;;;21.22;77.61
26807;BME280;14380;49.910;6.792;2023-05-14T11:17:24;98739.25;;;21.16;76.26
26807;BME280;14380;49.910;6.792;2023-05-14T11:19:51;98734.72;;;21.17;71.39
26807;BME280;14380;49.910;6.792;2023-05-14T11:22:18;98724.97;;;21.16;71.08
26807;BME280;14380;49.910;6.792;2023-05-14T11:24:46;98728.69;;;21.77;72.34
26807;BME280;14380;49.910;6.792;2023-05-14T11:27:13;98725.97;;;21.33;70.24
26807;BME280;14380;49.910;6.792;2023-05-14T11:29:43;98715.94;;;21.17;72.77
26807;BME280;14380;49.910;6.792;2023-05-14T11:32:10;98714.81;;;21.46;70.46
26807;BME280;14380;49.910;6.792;2023-05-14T11:34:39;98713.09;;;21.00;66.39
26807;BME280;14380;49.910;6.792;2023-05-14T11:37:06;98708.06;;;20.69;69.92
26807;BME280;14380;49.910;6.792;2023-05-14T11:39:34;98703.16;;;21.37;66.41
26807;BME280;14380;49.910;6.792;2023-05-14T11:42:03;98698.06;;;21.52;66.29
26807;BME280;14380;49.910;6.792;2023-05-14T11:44:30;98699.78;;;21.35;68.51
26807;BME280;14380;49.910;6.792;2023-05-14T11:46:58;98690.19;;;21.50;68.49
26807;BME280;14380;49.910;6.792;2023-05-14T11:49:26;98689.28;;;21.94;66.46
26807;BME280;14380;49.910;6.792;2023-05-14T11:52:00;98697.38;;;21.50;67.54
26807;BME280;14380;49.910;6.792;2023-05-14T11:54:27;98686.47;;;22.39;72.54
26807;BME280;14380;49.910;6.792;2023-05-14T11:56:55;98687.25;;;21.88;69.70
26807;BME280;14380;49.910;6.792;2023-05-14T11:59:23;98684.81;;;22.03;69.66
26807;BME280;14380;49.910;6.792;2023-05-14T12:01:50;98683.03;;;21.86;65.95
26807;BME280;14380;49.910;6.792;2023-05-14T12:04:17;98683.22;;;21.39;64.18
26807;BME280;14380;49.910;6.792;2023-05-14T12:06:46;98682.22;;;21.85;62.38
26807;BME280;14380;49.910;6.792;2023-05-14T12:09:15;98675.16;;;21.84;66.48
26807;BME280;14380;49.910;6.792;2023-05-14T12:11:43;98677.44;;;22.13;67.10
26807;BME280;14380;49.910;6.792;2023-05-14T12:14:11;98677.25;;;22.41;62.88
26807;BME280;14380;49.910;6.792;2023-05-14T12:16:40;98671.75;;;22.17;64.47
26807;BME280;14380;49.910;6.792;2023-05-14T12:19:08;98674.41;;;21.74;65.90
26807;BME280;14380;49.910;6.792;2023-05-14T12:21:36;98670.13;;;21.89;63.43
26807;BME280;14380;49.910;6.792;2023-05-14T12:24:04;98662.31;;;22.47;63.91
26807;BME280;14380;49.910;6.792;2023-05-14T12:26:33;98667.38;;;22.50;64.11
26807;BME280;14380;49.910;6.792;2023-05-14T12:29:01;98662.09;;;22.40;64.22
26807;BME280;14380;49.910;6.792;2023-05-14T12:31:29;98659.25;;;22.42;60.22
26807;BME280;14380;49.910;6.792;2023-05-14T12:33:56;98657.31;;;22.61;62.87
26807;BME280;14380;49.910;6.792;2023-05-14T12:36:24;98656.88;;;22.39;63.99
26807;BME280;14380;49.910;6.792;2023-05-14T12:38:56;98651.94;;;22.77;64.98
26807;BME280;14380;49.910;6.792;2023-05-14T12:43:51;98640.31;;;22.68;62.41
26807;BME280;14380;49.910;6.792;2023-05-14T12:46:18;98641.16;;;22.77;62.83
26807;BME280;14380;49.910;6.792;2023-05-14T12:48:45;98645.34;;;22.55;61.75
26807;BME280;14380;49.910;6.792;2023-05-14T12:51:12;98638.28;;;22.54;62.88
26807;BME280;14380;49.910;6.792;2023-05-14T12:53:38;98641.03;;;23.12;66.07
26807;BME280;14380;49.910;6.792;2023-05-14T12:56:06;98633.91;;;22.53;62.32
26807;BME280;14380;49.910;6.792;2023-05-14T12:58:32;98639.16;;;21.77;61.91
26807;BME280;14380;49.910;6.792;2023-05-14T13:01:00;98636.56;;;21.67;63.55
26807;BME280;14380;49.910;6.792;2023-05-14T13:03:27;98638.47;;;21.75;66.65